Time;durP1;ratioP1;P1;durP2;ratioP2;P2;SDS_P1;SDS_P2;PMS_P1;PMS_P2;Temp;Humidity;BMP_temperature;BMP_pressure;BME280_temperature;BME280_humidity;BME280_pressure;Samples;Min_cycle;Max_cycle;Signal;HPM_P1;HPM_P2
2021/06/25 00:00:30;;;;;;;2.30;2.20;;;26.00;53.40;;;;;;5025672;28;20681;-52
2021/06/25 00:02:55;;;;;;;2.20;2.07;;;26.20;53.00;;;;;;5025091;28;20874;-50
2021/06/25 00:05:21;;;;;;;5.90;2.57;;;26.20;52.70;;;;;;5031110;28;20672;-50
2021/06/25 00:07:47;;;;;;;2.70;2.50;;;26.00;52.90;;;;;;5024524;28;20204;-50
2021/06/25 00:10:12;;;;;;;5.07;2.87;;;25.70;53.40;;;;;;5027913;28;20196;-49
2021/06/25 00:12:38;;;;;;;3.77;2.33;;;25.40;54.00;;;;;;5025559;28;20236;-54
2021/06/25 00:15:06;;;;;;;2.83;2.60;;;25.20;54.60;;;;;;5026742;28;20205;-51
2021/06/25 00:17:32;;;;;;;3.13;2.57;;;25.00;55.10;;;;;;5030657;28;20221;-51
2021/06/25 00:19:57;;;;;;;4.73;2.93;;;24.80;55.40;;;;;;5024115;28;21020;-52
2021/06/25 00:22:24;;;;;;;2.70;2.50;;;24.80;56.00;;;;;;5022050;28;20216;-53
2021/06/25 00:24:49;;;;;;;2.70;2.50;;;24.60;55.70;;;;;;5028408;28;20193;-53
2021/06/25 00:27:15;;;;;;;2.67;2.43;;;24.50;56.30;;;;;;5027917;28;20482;-52
2021/06/25 00:29:41;;;;;;;5.33;2.67;;;24.50;56.10;;;;;;5024898;28;20205;-53
2021/06/25 00:32:07;;;;;;;2.57;2.43;;;24.40;56.50;;;;;;5027306;28;20645;-52
2021/06/25 00:34:34;;;;;;;2.43;2.33;;;24.50;56.30;;;;;;5028242;28;20217;-52
2021/06/25 00:36:59;;;;;;;2.90;2.70;;;24.50;55.90;;;;;;5028885;28;20466;-52
2021/06/25 00:39:25;;;;;;;7.53;2.97;;;24.50;55.70;;;;;;5028911;28;21284;-52
2021/06/25 00:41:51;;;;;;;2.93;2.20;;;24.50;56.30;;;;;;5026151;28;20190;-52
2021/06/25 00:44:18;;;;;;;2.93;2.30;;;24.60;56.00;;;;;;5028532;28;20645;-48
2021/06/25 00:46:45;;;;;;;2.90;2.67;;;24.40;56.10;;;;;;5029408;28;20200;-51
2021/06/25 00:49:11;;;;;;;2.70;2.00;;;24.20;56.10;;;;;;5027828;28;20539;-53
2021/06/25 00:51:37;;;;;;;2.40;2.30;;;24.10;56.50;;;;;;5022047;28;21226;-50
2021/06/25 00:54:04;;;;;;;2.43;2.33;;;24.00;56.50;;;;;;5029504;28;20482;-51
2021/06/25 00:56:29;;;;;;;2.40;2.20;;;23.90;56.90;;;;;;5028412;28;20602;-50
2021/06/25 00:58:55;;;;;;;2.30;2.20;;;23.90;57.20;;;;;;5018482;28;20490;-52
2021/06/25 01:01:21;;;;;;;2.23;2.03;;;23.80;57.70;;;;;;5022623;28;20193;-49
2021/06/25 01:03:47;;;;;;;2.40;2.20;;;23.60;57.90;;;;;;5022426;28;20777;-50
2021/06/25 01:06:12;;;;;;;1.70;1.60;;;23.50;58.20;;;;;;5023764;28;20946;-49
2021/06/25 01:08:38;;;;;;;2.40;1.90;;;23.50;58.50;;;;;;5027838;28;20189;-53
2021/06/25 01:11:04;;;;;;;1.80;1.70;;;23.50;58.80;;;;;;5030679;28;20238;-49
2021/06/25 01:13:31;;;;;;;1.90;1.80;;;23.50;58.40;;;;;;5027310;28;20232;-48
2021/06/25 01:15:57;;;;;;;2.87;1.97;;;23.40;58.50;;;;;;5027853;28;20209;-52
2021/06/25 01:18:23;;;;;;;1.90;1.70;;;23.40;58.90;;;;;;5029445;28;20571;-53
2021/06/25 01:20:48;;;;;;;2.47;2.23;;;23.30;58.80;;;;;;5015560;28;20198;-50
2021/06/25 01:23:14;;;;;;;2.03;1.80;;;23.20;58.80;;;;;;5025696;28;20604;-48
2021/06/25 01:25:40;;;;;;;5.33;2.30;;;23.00;59.30;;;;;;5025496;28;20193;-48
2021/06/25 01:28:11;;;;;;;1.70;1.60;;;22.90;59.70;;;;;;5029477;28;20220;-52
2021/06/25 01:30:45;;;;;;;2.03;1.93;;;23.00;59.80;;;;;;5022344;28;20197;-50
2021/06/25 01:33:13;;;;;;;1.73;1.63;;;23.10;59.70;;;;;;5023231;28;20796;-50
2021/06/25 01:35:39;;;;;;;2.30;2.10;;;23.20;59.20;;;;;;5027800;28;20436;-52
2021/06/25 01:38:05;;;;;;;2.37;2.17;;;23.30;59.20;;;;;;5031133;28;20502;-52
2021/06/25 01:40:32;;;;;;;2.93;1.80;;;23.50;59.10;;;;;;5023612;28;20527;-53
2021/06/25 01:43:01;;;;;;;2.23;2.13;;;23.60;58.30;;;;;;5024526;28;20448;-51
2021/06/25 01:45:30;;;;;;;2.50;2.30;;;23.80;58.40;;;;;;5025523;28;20440;-49
2021/06/25 01:47:57;;;;;;;2.40;1.97;;;23.90;57.90;;;;;;5027565;28;20801;-50
2021/06/25 01:50:28;;;;;;;2.10;1.90;;;23.80;57.90;;;;;;5021469;28;20530;-48
2021/06/25 01:52:56;;;;;;;2.27;2.00;;;23.60;58.20;;;;;;5028237;28;20462;-50
2021/06/25 01:55:22;;;;;;;2.07;1.60;;;23.50;58.30;;;;;;5024315;28;20483;-52
2021/06/25 01:57:48;;;;;;;1.50;1.40;;;23.40;58.60;;;;;;5023261;28;20852;-49
2021/06/25 02:00:15;;;;;;;3.17;1.97;;;23.40;58.60;;;;;;5026134;28;20442;-50
2021/06/25 02:02:41;;;;;;;1.83;1.73;;;23.40;58.70;;;;;;5020226;28;20190;-51
2021/06/25 02:05:09;;;;;;;2.03;1.70;;;23.40;59.00;;;;;;5015364;28;20436;-49
2021/06/25 02:07:35;;;;;;;4.03;1.80;;;23.30;58.70;;;;;;5028024;28;20471;-53
2021/06/25 02:10:02;;;;;;;1.97;1.87;;;23.20;58.90;;;;;;5026164;28;20803;-49
2021/06/25 02:12:28;;;;;;;2.23;1.70;;;23.20;59.10;;;;;;5029290;28;20235;-52
2021/06/25 02:14:54;;;;;;;1.67;1.57;;;23.30;59.20;;;;;;5024277;28;20453;-50
2021/06/25 02:17:20;;;;;;;4.63;1.70;;;23.20;59.10;;;;;;5024845;28;20212;-48
2021/06/25 02:19:46;;;;;;;1.67;1.57;;;23.20;59.40;;;;;;5028255;28;20198;-50
2021/06/25 02:22:12;;;;;;;1.87;1.60;;;23.30;59.00;;;;;;5024578;28;20447;-50
2021/06/25 02:24:38;;;;;;;3.53;1.60;;;23.30;59.30;;;;;;5025112;28;20302;-51
2021/06/25 02:27:05;;;;;;;1.50;1.40;;;23.30;59.50;;;;;;5025521;28;20924;-50
2021/06/25 02:29:31;;;;;;;1.30;1.20;;;23.60;58.90;;;;;;5029664;28;20284;-51
2021/06/25 02:31:58;;;;;;;7.17;1.70;;;23.80;58.90;;;;;;5027951;28;20530;-50
2021/06/25 02:34:23;;;;;;;1.67;1.57;;;23.70;58.20;;;;;;5026504;28;20296;-48
2021/06/25 02:36:49;;;;;;;5.47;2.00;;;23.80;58.30;;;;;;5024854;28;20531;-49
2021/06/25 02:39:14;;;;;;;1.77;1.67;;;23.70;57.90;;;;;;5031478;28;20221;-49
2021/06/25 02:41:41;;;;;;;1.60;1.50;;;23.60;58.30;;;;;;5029833;28;20676;-49
2021/06/25 02:44:08;;;;;;;4.33;1.47;;;23.50;58.80;;;;;;5024343;28;20185;-50
2021/06/25 02:46:33;;;;;;;4.10;1.50;;;23.50;58.90;;;;;;5031318;28;20809;-52
2021/06/25 02:48:59;;;;;;;1.83;1.40;;;23.60;58.60;;;;;;5030678;28;20452;-50
2021/06/25 02:51:25;;;;;;;1.70;1.60;;;23.20;58.90;;;;;;5032845;28;20193;-49
2021/06/25 02:53:51;;;;;;;2.03;1.80;;;23.10;59.70;;;;;;5028576;28;20217;-51
2021/06/25 02:56:17;;;;;;;1.93;1.83;;;23.20;59.10;;;;;;5028041;28;20436;-53
2021/06/25 02:58:42;;;;;;;1.70;1.60;;;23.20;59.40;;;;;;5017943;28;20714;-52
2021/06/25 03:01:08;;;;;;;3.00;1.40;;;23.30;59.00;;;;;;5024796;28;20439;-53
2021/06/25 03:03:34;;;;;;;2.80;1.60;;;23.40;58.70;;;;;;5028251;28;20190;-52
2021/06/25 03:05:59;;;;;;;1.40;1.30;;;23.30;58.60;;;;;;5027012;28;20209;-53
2021/06/25 03:08:25;;;;;;;1.77;1.67;;;23.20;59.10;;;;;;5029174;28;20196;-51
2021/06/25 03:10:51;;;;;;;1.60;1.50;;;23.20;59.10;;;;;;5029121;28;20197;-52
2021/06/25 03:13:18;;;;;;;1.57;1.47;;;23.30;58.70;;;;;;5030508;28;20237;-52
2021/06/25 03:15:44;;;;;;;2.00;1.90;;;23.10;59.00;;;;;;5027790;28;20825;-51
2021/06/25 03:18:10;;;;;;;1.70;1.60;;;22.90;59.30;;;;;;5031073;28;20494;-52
2021/06/25 03:20:35;;;;;;;1.60;1.50;;;22.90;60.10;;;;;;5024824;28;20475;-51
2021/06/25 03:23:01;;;;;;;1.53;1.43;;;22.80;59.70;;;;;;5027256;28;20472;-51
2021/06/25 03:25:27;;;;;;;1.77;1.67;;;22.80;59.70;;;;;;5026107;28;20555;-51
2021/06/25 03:27:52;;;;;;;1.37;1.27;;;22.90;60.00;;;;;;5028218;28;20193;-51
2021/06/25 03:30:19;;;;;;;1.60;1.50;;;22.70;59.80;;;;;;5022775;28;20204;-52
2021/06/25 03:32:45;;;;;;;1.90;1.47;;;22.80;59.90;;;;;;5024803;28;20200;-52
2021/06/25 03:35:11;;;;;;;1.67;1.57;;;22.80;59.90;;;;;;5028115;28;20432;-49
2021/06/25 03:37:37;;;;;;;1.97;1.70;;;22.70;60.20;;;;;;5026430;28;20223;-51
2021/06/25 03:40:09;;;;;;;1.60;1.50;;;22.60;60.60;;;;;;5025955;28;20519;-52
2021/06/25 03:42:34;;;;;;;1.50;1.40;;;22.70;60.20;;;;;;5030802;28;20197;-52
2021/06/25 03:45:00;;;;;;;1.53;1.30;;;22.70;59.90;;;;;;5028485;28;20447;-52
2021/06/25 03:47:26;;;;;;;2.23;1.77;;;22.80;59.80;;;;;;5027079;28;20240;-51
2021/06/25 03:49:51;;;;;;;1.40;1.30;;;23.00;59.50;;;;;;5029232;28;20193;-51
2021/06/25 03:52:17;;;;;;;1.37;1.30;;;22.90;59.60;;;;;;5019554;28;20201;-51
2021/06/25 03:54:43;;;;;;;1.60;1.50;;;22.90;59.70;;;;;;5029842;28;20243;-50
2021/06/25 03:57:09;;;;;;;1.97;1.87;;;23.10;60.30;;;;;;5020930;28;20212;-51
2021/06/25 03:59:34;;;;;;;1.97;1.60;;;23.00;59.40;;;;;;5027398;28;20440;-50
2021/06/25 04:02:00;;;;;;;2.07;1.60;;;23.10;59.80;;;;;;5028072;28;20251;-49
2021/06/25 04:04:25;;;;;;;2.30;2.10;;;23.20;59.70;;;;;;5021842;28;20255;-51
2021/06/25 04:06:51;;;;;;;4.90;1.77;;;23.30;59.20;;;;;;5026541;28;20218;-50
2021/06/25 04:09:17;;;;;;;1.90;1.80;;;23.40;59.30;;;;;;5024176;28;20201;-52
2021/06/25 04:11:43;;;;;;;1.73;1.63;;;23.60;58.80;;;;;;5023825;28;20324;-52
2021/06/25 04:14:09;;;;;;;2.83;1.73;;;23.70;58.60;;;;;;5028730;28;20243;-49
2021/06/25 04:16:34;;;;;;;2.83;1.97;;;23.70;58.30;;;;;;5031326;28;20467;-52
2021/06/25 04:19:00;;;;;;;1.37;1.27;;;23.60;58.40;;;;;;5028482;28;20244;-51
2021/06/25 04:21:25;;;;;;;1.60;1.50;;;23.50;59.40;;;;;;5023827;28;20186;-51
2021/06/25 04:23:51;;;;;;;1.70;1.60;;;23.20;60.70;;;;;;5017962;28;20197;-49
2021/06/25 04:26:17;;;;;;;1.90;1.80;;;23.20;61.10;;;;;;5027010;28;20676;-48
2021/06/25 04:28:42;;;;;;;1.43;1.33;;;23.20;61.20;;;;;;5023183;28;20632;-52
2021/06/25 04:31:08;;;;;;;1.97;1.87;;;23.10;61.40;;;;;;5026733;28;20209;-50
2021/06/25 04:33:35;;;;;;;2.63;1.60;;;23.30;61.30;;;;;;5020908;28;20560;-52
2021/06/25 04:36:01;;;;;;;2.50;1.80;;;23.30;60.90;;;;;;5027397;28;20206;-52
2021/06/25 04:38:26;;;;;;;2.00;1.77;;;23.40;61.10;;;;;;5025583;28;20491;-51
2021/06/25 04:40:52;;;;;;;2.03;1.83;;;23.30;61.30;;;;;;5018915;28;20534;-51
2021/06/25 04:43:18;;;;;;;2.83;1.80;;;23.30;60.90;;;;;;5028950;28;20220;-52
2021/06/25 04:45:44;;;;;;;1.80;1.70;;;23.20;61.10;;;;;;5028687;28;20200;-49
2021/06/25 04:48:15;;;;;;;2.13;1.93;;;23.20;60.80;;;;;;5020914;28;20570;-50
2021/06/25 04:50:42;;;;;;;1.93;1.70;;;23.20;61.10;;;;;;5029978;28;20486;-51
2021/06/25 04:53:07;;;;;;;2.20;2.00;;;22.90;62.30;;;;;;5021695;28;20483;-49
2021/06/25 04:55:43;;;;;;;6.40;1.93;;;22.50;64.10;;;;;;5024428;28;20469;-52
2021/06/25 04:58:14;;;;;;;2.10;1.90;;;22.20;64.20;;;;;;5017743;28;20658;-49
2021/06/25 05:00:40;;;;;;;3.03;1.77;;;22.20;65.00;;;;;;5027398;28;20916;-53
2021/06/25 05:03:07;;;;;;;3.93;2.43;;;22.10;65.60;;;;;;5030884;28;20541;-49
2021/06/25 05:05:34;;;;;;;2.13;1.70;;;22.10;65.70;;;;;;5022994;28;22242;-50
2021/06/25 05:08:00;;;;;;;4.93;2.30;;;22.20;65.90;;;;;;5026960;28;20448;-48
2021/06/25 05:10:26;;;;;;;2.57;1.80;;;22.30;65.00;;;;;;5028825;28;20493;-52
2021/06/25 05:12:52;;;;;;;3.27;1.83;;;22.50;65.00;;;;;;5028912;28;20233;-52
2021/06/25 05:15:19;;;;;;;2.10;1.90;;;22.70;64.70;;;;;;5025039;28;20220;-50
2021/06/25 05:17:45;;;;;;;4.00;2.10;;;22.80;64.00;;;;;;5031434;28;20950;-48
2021/06/25 05:20:11;;;;;;;4.60;2.10;;;22.90;63.30;;;;;;5023011;28;20445;-53
2021/06/25 05:22:37;;;;;;;3.83;1.80;;;23.10;63.70;;;;;;5027948;28;20666;-49
2021/06/25 05:25:02;;;;;;;1.83;1.73;;;23.20;62.90;;;;;;5027498;28;20494;-52
2021/06/25 05:27:28;;;;;;;1.67;1.57;;;23.30;62.20;;;;;;5024700;28;20276;-49
2021/06/25 05:29:54;;;;;;;2.00;1.70;;;23.40;61.50;;;;;;5028339;28;20710;-48
2021/06/25 05:32:19;;;;;;;1.53;1.43;;;23.60;60.90;;;;;;5025613;28;20197;-49
2021/06/25 05:34:45;;;;;;;1.97;1.60;;;23.50;60.60;;;;;;5023608;28;20201;-49
2021/06/25 05:37:12;;;;;;;1.60;1.50;;;23.50;60.80;;;;;;5029115;28;20197;-53
2021/06/25 05:39:37;;;;;;;1.73;1.63;;;23.50;60.40;;;;;;5021084;28;20205;-50
2021/06/25 05:42:03;;;;;;;1.77;1.67;;;23.50;60.40;;;;;;5015199;28;20452;-49
2021/06/25 05:44:29;;;;;;;1.60;1.50;;;23.60;60.40;;;;;;5030830;28;20283;-52
2021/06/25 05:46:55;;;;;;;1.90;1.70;;;23.40;61.10;;;;;;5032451;28;20942;-49
2021/06/25 05:49:20;;;;;;;2.50;1.87;;;23.20;61.70;;;;;;5026287;28;20189;-48
2021/06/25 05:51:46;;;;;;;2.30;1.50;;;23.30;61.70;;;;;;5032802;28;20193;-48
2021/06/25 05:54:12;;;;;;;1.87;1.70;;;23.30;61.70;;;;;;5034616;28;20221;-51
2021/06/25 05:56:38;;;;;;;1.93;1.83;;;23.30;61.80;;;;;;5030900;28;20455;-51
2021/06/25 05:59:03;;;;;;;1.70;1.60;;;23.30;61.60;;;;;;5030212;28;20294;-52
2021/06/25 06:01:30;;;;;;;2.00;1.90;;;23.30;61.60;;;;;;5022565;28;20201;-51
2021/06/25 06:03:55;;;;;;;2.13;1.93;;;23.30;61.90;;;;;;5034565;28;20200;-52
2021/06/25 06:06:21;;;;;;;2.17;1.97;;;23.20;62.50;;;;;;5033655;28;20790;-52
2021/06/25 06:08:47;;;;;;;1.80;1.70;;;23.30;63.10;;;;;;5024544;28;20641;-52
2021/06/25 06:11:13;;;;;;;1.70;1.60;;;23.20;63.30;;;;;;5027068;28;20201;-51
2021/06/25 06:13:39;;;;;;;1.97;1.83;;;23.10;63.50;;;;;;5029357;28;20230;-52
2021/06/25 06:16:04;;;;;;;2.53;2.20;;;23.00;63.70;;;;;;5033899;28;20309;-51
2021/06/25 06:18:36;;;;;;;2.43;2.23;;;22.90;63.90;;;;;;5030418;28;20233;-50
2021/06/25 06:21:02;;;;;;;2.43;2.33;;;22.80;64.00;;;;;;5032586;28;20446;-52
2021/06/25 06:31:44;;;;;;;3.00;2.70;;;22.80;64.90;;;;;;5030595;28;20443;-51
2021/06/25 06:34:11;;;;;;;3.13;2.93;;;22.80;64.50;;;;;;5030868;28;20894;-48
2021/06/25 06:36:45;;;;;;;2.60;2.40;;;22.90;64.70;;;;;;5033261;28;20447;-51
2021/06/25 06:39:13;;;;;;;2.73;2.30;;;22.90;64.90;;;;;;5030866;28;21732;-48
2021/06/25 06:41:40;;;;;;;2.23;2.13;;;22.70;64.80;;;;;;5029374;28;20502;-47
2021/06/25 06:44:06;;;;;;;2.50;2.30;;;22.80;64.90;;;;;;5025774;28;20816;-51
2021/06/25 06:46:33;;;;;;;2.97;2.77;;;23.00;65.10;;;;;;5023486;28;20517;-49
2021/06/25 06:48:59;;;;;;;2.77;2.57;;;23.00;64.90;;;;;;5030961;28;20535;-49
2021/06/25 06:51:25;;;;;;;3.33;2.20;;;23.10;64.90;;;;;;5019307;28;20440;-51
2021/06/25 06:53:52;;;;;;;2.50;2.30;;;23.20;64.80;;;;;;5031254;28;20803;-47
2021/06/25 06:56:21;;;;;;;2.27;2.00;;;23.20;64.30;;;;;;5015278;28;20197;-48
2021/06/25 06:58:51;;;;;;;2.73;2.53;;;23.20;64.10;;;;;;5016368;28;20485;-48
2021/06/25 07:01:17;;;;;;;2.43;2.23;;;23.20;64.50;;;;;;5032919;28;20452;-51
2021/06/25 07:03:43;;;;;;;2.47;2.27;;;23.20;64.40;;;;;;5016523;28;20425;-47
2021/06/25 07:06:09;;;;;;;2.60;2.40;;;23.30;64.50;;;;;;5023380;28;20201;-52
2021/06/25 07:08:34;;;;;;;2.77;2.57;;;23.20;64.60;;;;;;5016707;28;20380;-48
2021/06/25 07:11:01;;;;;;;2.87;2.60;;;23.20;64.90;;;;;;5030237;28;20619;-46
2021/06/25 07:13:27;;;;;;;3.00;2.70;;;23.20;65.00;;;;;;5033803;28;20700;-47
2021/06/25 07:15:54;;;;;;;3.10;2.70;;;23.20;64.70;;;;;;5020991;28;20437;-48
2021/06/25 07:18:20;;;;;;;2.80;2.60;;;23.20;65.10;;;;;;5012840;28;20563;-47
2021/06/25 07:20:46;;;;;;;2.40;2.20;;;23.10;64.50;;;;;;5032268;28;20515;-47
2021/06/25 07:23:11;;;;;;;2.50;2.30;;;23.10;64.40;;;;;;5015242;28;20194;-49
2021/06/25 07:25:37;;;;;;;2.63;2.43;;;23.20;65.30;;;;;;5027208;28;20205;-46
2021/06/25 07:28:03;;;;;;;2.67;2.47;;;23.10;64.00;;;;;;5033470;28;20190;-49
2021/06/25 07:30:29;;;;;;;2.63;2.47;;;23.00;64.50;;;;;;5031945;28;20232;-47
2021/06/25 07:32:54;;;;;;;2.50;2.30;;;23.20;64.60;;;;;;5029646;28;20521;-46
2021/06/25 07:35:20;;;;;;;2.53;2.33;;;23.20;64.00;;;;;;5032686;28;20205;-47
2021/06/25 07:37:46;;;;;;;2.30;2.20;;;23.40;63.80;;;;;;5015250;28;20267;-46
2021/06/25 07:40:12;;;;;;;2.80;2.60;;;23.40;63.70;;;;;;5020129;28;20204;-47
2021/06/25 07:42:38;;;;;;;2.80;2.60;;;23.30;63.40;;;;;;5028134;28;20908;-48
2021/06/25 07:45:09;;;;;;;2.60;2.40;;;23.40;63.70;;;;;;5026102;28;20467;-50
2021/06/25 07:47:37;;;;;;;2.70;2.50;;;23.40;63.80;;;;;;5014631;28;20194;-47
2021/06/25 07:50:08;;;;;;;2.57;2.37;;;23.20;64.10;;;;;;5018906;28;20443;-49
2021/06/25 07:52:33;;;;;;;2.63;2.43;;;23.20;64.30;;;;;;5023766;28;20436;-47
2021/06/25 07:54:59;;;;;;;2.60;2.40;;;23.10;64.80;;;;;;5032544;28;20425;-46
2021/06/25 07:57:25;;;;;;;3.47;3.27;;;23.10;65.20;;;;;;5026297;28;20650;-49
2021/06/25 07:59:50;;;;;;;2.50;2.40;;;23.10;65.30;;;;;;5032265;28;20564;-50
2021/06/25 08:02:16;;;;;;;2.93;2.73;;;23.30;65.50;;;;;;5032305;28;20691;-48
2021/06/25 08:04:46;;;;;;;2.90;2.70;;;23.50;65.40;;;;;;5031777;28;20205;-50
2021/06/25 08:07:15;;;;;;;3.87;3.57;;;23.60;65.10;;;;;;5032112;28;20707;-51
2021/06/25 08:09:42;;;;;;;3.80;3.50;;;23.70;64.90;;;;;;5017753;28;20495;-50
2021/06/25 08:12:09;;;;;;;4.17;3.87;;;23.60;65.10;;;;;;5018956;28;20463;-50
2021/06/25 08:14:36;;;;;;;4.50;4.20;;;23.60;64.60;;;;;;5029970;28;20436;-49
2021/06/25 08:17:03;;;;;;;5.13;4.73;;;23.60;64.30;;;;;;5031309;28;20424;-49
2021/06/25 08:19:29;;;;;;;5.60;5.10;;;23.50;64.40;;;;;;5026890;28;20583;-48
2021/06/25 08:21:54;;;;;;;5.80;5.40;;;23.30;64.90;;;;;;5030554;28;20841;-51
2021/06/25 08:24:20;;;;;;;5.90;5.40;;;23.20;65.50;;;;;;5030706;28;20507;-50
2021/06/25 08:26:45;;;;;;;5.70;4.67;;;23.30;66.10;;;;;;5031468;28;20200;-47
2021/06/25 08:29:11;;;;;;;6.60;6.10;;;23.40;65.70;;;;;;5016904;28;20201;-47
2021/06/25 08:31:37;;;;;;;6.37;5.63;;;23.20;64.80;;;;;;5018700;28;20193;-47
2021/06/25 08:34:03;;;;;;;5.47;4.97;;;23.30;65.30;;;;;;5030647;28;20189;-47
2021/06/25 08:36:28;;;;;;;5.30;4.90;;;23.40;65.70;;;;;;5030345;28;20592;-48
2021/06/25 08:38:54;;;;;;;5.13;4.70;;;23.40;65.40;;;;;;5027994;28;20487;-51
2021/06/25 08:41:20;;;;;;;5.10;4.70;;;23.50;64.80;;;;;;5030314;28;20201;-49
2021/06/25 08:43:46;;;;;;;5.30;4.90;;;23.50;64.30;;;;;;5019044;28;20444;-49
2021/06/25 08:46:12;;;;;;;4.00;3.70;;;23.40;64.50;;;;;;5025956;28;20262;-48
2021/06/25 08:48:38;;;;;;;4.20;3.90;;;23.40;64.40;;;;;;5022706;28;20200;-47
2021/06/25 08:51:06;;;;;;;3.70;3.23;;;23.40;64.50;;;;;;5030865;28;20463;-50
2021/06/25 08:53:32;;;;;;;2.97;2.77;;;23.30;64.70;;;;;;5029846;28;20448;-48
2021/06/25 08:55:58;;;;;;;3.30;3.00;;;23.10;64.30;;;;;;5030400;28;20448;-46
2021/06/25 08:58:24;;;;;;;3.03;2.60;;;23.10;64.10;;;;;;5031075;28;20229;-48
2021/06/25 09:00:50;;;;;;;2.97;2.77;;;23.10;64.70;;;;;;5026717;28;20326;-48
2021/06/25 09:03:24;;;;;;;2.40;2.20;;;23.20;64.50;;;;;;5028682;28;20284;-47
2021/06/25 09:05:51;;;;;;;2.20;2.10;;;23.20;64.00;;;;;;5018968;28;21305;-48
2021/06/25 09:08:28;;;;;;;2.00;1.90;;;23.30;63.70;;;;;;5030985;28;20444;-49
2021/06/25 09:10:58;;;;;;;2.03;1.93;;;23.20;63.60;;;;;;5030275;28;20436;-48
2021/06/25 09:13:35;;;;;;;2.70;1.90;;;22.90;63.90;;;;;;5030719;28;20490;-52
2021/06/25 09:16:17;;;;;;;2.10;2.00;;;22.90;65.90;;;;;;5028536;28;20791;-52
2021/06/25 09:19:12;;;;;;;2.37;2.17;;;23.00;65.50;;;;;;5028004;28;20490;-51
2021/06/25 09:21:40;;;;;;;2.17;2.07;;;23.00;65.50;;;;;;5030879;28;20448;-53
2021/06/25 09:24:23;;;;;;;1.93;1.83;;;23.00;66.40;;;;;;5030742;28;20498;-52
2021/06/25 09:26:56;;;;;;;2.00;1.90;;;23.00;65.40;;;;;;5025359;28;20458;-53
2021/06/25 09:29:25;;;;;;;2.50;1.83;;;22.90;65.60;;;;;;5029108;28;20440;-51
2021/06/25 09:31:59;;;;;;;2.57;1.57;;;22.90;66.10;;;;;;5030381;28;20436;-51
2021/06/25 09:34:46;;;;;;;2.13;1.53;;;22.70;66.40;;;;;;5015522;28;21133;-51
2021/06/25 09:37:15;;;;;;;1.80;1.70;;;22.80;66.60;;;;;;5026174;28;20448;-48
2021/06/25 09:39:42;;;;;;;2.47;2.30;;;22.80;66.60;;;;;;5024238;28;20484;-49
2021/06/25 09:42:18;;;;;;;2.87;2.43;;;22.80;66.40;;;;;;5028883;28;20421;-52
2021/06/25 09:45:07;;;;;;;3.60;3.30;;;22.90;66.90;;;;;;5023591;28;20538;-51
2021/06/25 09:47:38;;;;;;;3.10;2.90;;;22.70;66.40;;;;;;5027218;28;20444;-52
2021/06/25 09:50:17;;;;;;;3.10;2.90;;;22.60;67.40;;;;;;5028156;28;21303;-47
2021/06/25 09:52:58;;;;;;;4.93;3.40;;;22.80;67.70;;;;;;5023843;28;20447;-48
2021/06/25 09:55:27;;;;;;;5.00;3.70;;;22.80;67.00;;;;;;5029749;28;20530;-49
2021/06/25 09:58:57;;;;;;;6.67;4.23;;;22.80;66.80;;;;;;5025171;28;20583;-48
2021/06/25 10:03:46;;;;;;;5.53;4.37;;;23.10;67.60;;;;;;5027446;28;20511;-47
2021/06/25 10:06:15;;;;;;;5.77;4.50;;;23.20;67.10;;;;;;5017771;28;20501;-49
2021/06/25 10:08:43;;;;;;;7.63;4.43;;;23.20;66.20;;;;;;5022209;28;20814;-48
2021/06/25 10:11:09;;;;;;;5.17;4.67;;;23.20;65.50;;;;;;5017461;28;20436;-52
2021/06/25 10:13:37;;;;;;;5.43;5.00;;;23.20;66.50;;;;;;5030134;28;20471;-51
2021/06/25 10:16:07;;;;;;;6.23;4.77;;;23.20;65.60;;;;;;5030186;28;20429;-51
2021/06/25 10:18:41;;;;;;;6.60;6.00;;;23.30;65.50;;;;;;5025305;28;20501;-51
2021/06/25 10:21:10;;;;;;;7.90;5.90;;;23.30;65.40;;;;;;5022960;28;20995;-51
2021/06/25 10:23:37;;;;;;;6.27;5.70;;;23.40;65.50;;;;;;5023280;28;20446;-53
2021/06/25 10:26:07;;;;;;;7.00;6.30;;;23.40;65.10;;;;;;5026585;28;20435;-52
2021/06/25 10:28:41;;;;;;;6.40;5.80;;;23.10;65.20;;;;;;5027830;28;20810;-51
2021/06/25 10:31:08;;;;;;;7.97;7.23;;;22.90;66.00;;;;;;5027435;28;20962;-48
2021/06/25 10:33:35;;;;;;;7.73;7.03;;;22.80;66.50;;;;;;5034332;28;20946;-51
2021/06/25 10:36:06;;;;;;;8.60;7.70;;;22.90;66.90;;;;;;5024131;28;20424;-49
2021/06/25 10:38:33;;;;;;;8.40;7.63;;;22.80;67.00;;;;;;5031493;28;20557;-48
2021/06/25 10:41:04;;;;;;;8.97;8.07;;;22.80;67.00;;;;;;5032321;28;20428;-48
2021/06/25 10:43:47;;;;;;;9.30;8.50;;;22.90;67.00;;;;;;5032295;28;20444;-48
2021/06/25 10:46:39;;;;;;;9.60;8.70;;;23.10;66.50;;;;;;5019718;28;20435;-50
2021/06/25 10:49:08;;;;;;;11.87;9.00;;;23.40;66.30;;;;;;5028499;28;20448;-49
2021/06/25 10:51:37;;;;;;;10.50;9.50;;;23.50;66.20;;;;;;5029447;28;20445;-48
2021/06/25 10:54:10;;;;;;;10.80;9.70;;;23.60;65.90;;;;;;5030578;28;20440;-48
2021/06/25 10:56:38;;;;;;;11.30;10.20;;;23.60;65.10;;;;;;5023249;28;20436;-48
2021/06/25 11:02:06;;;;;;;11.60;10.10;;;23.80;65.00;;;;;;5020447;28;20553;-48
2021/06/25 11:04:43;;;;;;;13.70;10.90;;;23.70;64.70;;;;;;5033134;28;20443;-48
2021/06/25 11:07:14;;;;;;;9.23;8.27;;;23.70;64.60;;;;;;5030920;28;20564;-50
2021/06/25 11:09:53;;;;;;;13.10;11.20;;;23.70;64.80;;;;;;5031893;28;20448;-49
2021/06/25 11:12:27;;;;;;;12.07;10.87;;;23.90;64.60;;;;;;5031501;28;20511;-49
2021/06/25 11:15:12;;;;;;;11.87;10.73;;;24.00;64.40;;;;;;5016406;28;20492;-52
2021/06/25 11:17:57;;;;;;;12.50;11.20;;;24.10;64.00;;;;;;5025689;28;20432;-50
2021/06/25 11:20:40;;;;;;;13.13;11.83;;;24.10;63.90;;;;;;5020912;28;20441;-50
2021/06/25 11:23:15;;;;;;;12.53;11.23;;;24.10;63.80;;;;;;5023863;28;20787;-52
2021/06/25 11:26:02;;;;;;;11.83;10.63;;;24.20;63.40;;;;;;5019765;28;20466;-51
2021/06/25 11:28:30;;;;;;;15.60;13.27;;;24.20;63.70;;;;;;5019750;28;20543;-51
2021/06/25 11:31:14;;;;;;;13.20;11.90;;;24.20;63.10;;;;;;5025370;28;20439;-52
2021/06/25 11:33:41;;;;;;;11.40;10.37;;;24.20;62.70;;;;;;5032199;28;20471;-52
2021/06/25 11:36:30;;;;;;;13.10;11.80;;;24.10;62.50;;;;;;5027220;28;20441;-50
2021/06/25 11:39:09;;;;;;;14.30;12.90;;;24.00;62.70;;;;;;5021941;28;20518;-48
2021/06/25 11:41:36;;;;;;;13.70;12.33;;;24.00;63.00;;;;;;5031348;28;20490;-51
2021/06/25 11:44:27;;;;;;;14.80;13.30;;;24.00;63.40;;;;;;5019215;28;20436;-46
2021/06/25 11:47:01;;;;;;;14.20;12.83;;;24.00;62.50;;;;;;5018452;28;20493;-48
2021/06/25 11:49:58;;;;;;;14.30;13.00;;;23.90;63.10;;;;;;5022575;28;20556;-49
2021/06/25 11:52:42;;;;;;;15.40;13.90;;;24.00;63.00;;;;;;5017981;28;20940;-47
2021/06/25 11:55:10;;;;;;;15.57;13.87;;;23.90;62.40;;;;;;5015919;28;20524;-48
2021/06/25 11:57:38;;;;;;;15.93;14.23;;;23.70;61.70;;;;;;5032410;28;20927;-50
2021/06/25 12:00:06;;;;;;;16.60;14.50;;;23.70;63.70;;;;;;5027344;28;20485;-47
2021/06/25 12:02:47;;;;;;;15.87;14.27;;;23.90;64.10;;;;;;5029638;28;20436;-50
2021/06/25 12:05:17;;;;;;;15.83;14.13;;;23.80;63.10;;;;;;5029206;28;20432;-47
2021/06/25 12:07:44;;;;;;;14.73;13.13;;;23.90;64.20;;;;;;5030031;28;20502;-51
2021/06/25 12:10:15;;;;;;;15.90;14.30;;;24.20;63.90;;;;;;5017915;28;20444;-49
2021/06/25 12:12:40;;;;;;;15.60;14.17;;;24.30;62.30;;;;;;5028597;28;20472;-47
2021/06/25 12:15:10;;;;;;;14.83;13.40;;;24.40;61.90;;;;;;5015382;28;20434;-52
2021/06/25 12:17:40;;;;;;;14.07;12.63;;;24.60;61.80;;;;;;5027328;28;20264;-50
2021/06/25 12:20:09;;;;;;;14.37;12.80;;;24.70;60.70;;;;;;5022898;28;20591;-51
2021/06/25 12:22:56;;;;;;;14.73;12.67;;;24.70;59.90;;;;;;5019698;28;20920;-47
2021/06/25 12:25:45;;;;;;;13.60;12.20;;;24.60;59.90;;;;;;5024778;28;20512;-46
2021/06/25 12:28:12;;;;;;;13.60;12.30;;;24.50;59.90;;;;;;5018353;28;20472;-51
2021/06/25 12:30:59;;;;;;;12.50;11.40;;;24.60;60.10;;;;;;5029344;28;20525;-51
2021/06/25 12:33:29;;;;;;;10.93;9.93;;;24.80;60.00;;;;;;5015026;28;20510;-51
2021/06/25 12:35:56;;;;;;;11.67;10.30;;;24.60;59.90;;;;;;5018354;28;20802;-51
2021/06/25 12:41:44;;;;;;;10.97;9.97;;;24.70;59.40;;;;;;5067106;23;20492;-46
2021/06/25 12:44:11;;;;;;;10.53;9.53;;;24.70;59.10;;;;;;5027067;28;20451;-45
2021/06/25 12:46:37;;;;;;;11.37;10.27;;;24.90;59.10;;;;;;5031249;28;20431;-46
2021/06/25 12:49:05;;;;;;;9.23;8.43;;;24.90;58.80;;;;;;5026525;28;20444;-45
2021/06/25 12:51:35;;;;;;;10.43;9.43;;;25.00;59.10;;;;;;5029173;28;20659;-44
2021/06/25 12:54:02;;;;;;;10.87;9.87;;;25.20;58.40;;;;;;5028231;28;20491;-46
2021/06/25 12:56:35;;;;;;;11.40;10.40;;;25.20;57.80;;;;;;5027539;28;20443;-46
2021/06/25 12:59:30;;;;;;;11.67;10.67;;;25.20;57.30;;;;;;5028772;28;20598;-45
2021/06/25 13:01:59;;;;;;;10.90;9.90;;;25.10;58.00;;;;;;5025530;28;20975;-45
2021/06/25 13:04:30;;;;;;;18.63;16.80;;;25.00;57.90;;;;;;5023337;28;20435;-44
2021/06/25 13:06:57;;;;;;;13.47;12.17;;;25.00;58.20;;;;;;5024817;28;20447;-45